Time;durP1;ratioP1;P1;durP2;ratioP2;P2;SDS_P1;SDS_P2;PMS_P1;PMS_P2;Temp;Humidity;BMP_temperature;BMP_pressure;BME280_temperature;BME280_humidity;BME280_pressure;Samples;Min_cycle;Max_cycle;Signal;HPM_P1;HPM_P2
2021/01/07 00:01:32;;;;;;;13.15;6.50;;;16.10;57.90;;;;;;4991843;28;20025;-64
2021/01/07 00:07:19;;;;;;;13.07;6.03;;;16.10;57.90;;;;;;4989698;28;20092;-62
2021/01/07 00:09:45;;;;;;;11.35;5.93;;;16.10;57.60;;;;;;5011473;28;20029;-63
2021/01/07 00:12:10;;;;;;;10.43;5.13;;;16.10;57.80;;;;;;4994214;28;20042;-64
2021/01/07 00:14:36;;;;;;;10.85;5.70;;;16.10;57.60;;;;;;4991539;28;20105;-63
2021/01/07 00:17:01;;;;;;;14.77;5.93;;;16.10;57.50;;;;;;4992050;28;20480;-62
2021/01/07 00:19:27;;;;;;;12.30;6.03;;;16.10;57.50;;;;;;4987154;28;20081;-62
2021/01/07 00:21:52;;;;;;;10.38;5.55;;;16.10;57.50;;;;;;4989072;28;20014;-63
2021/01/07 00:24:18;;;;;;;10.23;4.88;;;16.10;57.50;;;;;;4987417;28;20023;-64
2021/01/07 00:26:43;;;;;;;10.65;5.20;;;16.10;57.40;;;;;;4987997;28;20022;-64
2021/01/07 00:29:09;;;;;;;8.88;4.70;;;16.10;57.50;;;;;;4972271;28;20026;-62
2021/01/07 00:31:34;;;;;;;11.10;5.60;;;16.10;57.50;;;;;;4983494;28;20426;-62
2021/01/07 00:34:00;;;;;;;9.00;4.70;;;16.10;57.40;;;;;;4987534;28;20484;-63
2021/01/07 00:36:26;;;;;;;12.95;4.53;;;16.10;57.40;;;;;;4989935;28;20101;-63
2021/01/07 00:38:51;;;;;;;9.80;5.32;;;16.00;57.30;;;;;;4974924;28;20089;-63
2021/01/07 00:41:18;;;;;;;10.43;5.03;;;16.10;57.40;;;;;;4990464;28;20384;-63
2021/01/07 00:43:44;;;;;;;9.57;4.43;;;16.00;57.30;;;;;;4990470;28;20030;-63
2021/01/07 00:46:10;;;;;;;8.40;4.32;;;16.00;57.50;;;;;;4984737;28;20041;-62
2021/01/07 00:48:36;;;;;;;9.52;4.70;;;16.00;57.50;;;;;;4971720;28;20404;-63
2021/01/07 00:51:01;;;;;;;8.10;4.28;;;16.00;57.40;;;;;;4989570;28;20651;-62
2021/01/07 00:53:27;;;;;;;9.05;4.43;;;16.00;57.90;;;;;;4986320;28;20114;-63
2021/01/07 00:55:52;;;;;;;9.48;4.35;;;16.00;57.20;;;;;;4970903;28;20067;-62
2021/01/07 01:01:47;;;;;;;8.38;3.85;;;16.00;57.20;;;;;;4982936;28;20038;-62
2021/01/07 01:04:14;;;;;;;8.73;4.00;;;16.00;57.20;;;;;;4974720;28;20029;-63
2021/01/07 01:06:40;;;;;;;7.40;3.90;;;16.00;57.00;;;;;;4975890;28;20038;-61
2021/01/07 01:09:08;;;;;;;6.90;3.80;;;16.00;57.10;;;;;;4970172;28;20031;-63
2021/01/07 01:12:08;;;;;;;7.72;3.58;;;16.00;57.10;;;;;;4973309;28;20403;-63
2021/01/07 01:14:34;;;;;;;8.85;3.90;;;16.00;57.00;;;;;;4971668;28;20053;-63
2021/01/07 01:20:21;;;;;;;8.82;3.78;;;16.00;57.10;;;;;;4992222;28;20037;-63
2021/01/07 01:23:34;;;;;;;8.88;3.90;;;16.00;56.90;;;;;;4977602;28;20022;-61
2021/01/07 01:29:22;;;;;;;7.20;3.30;;;16.00;57.00;;;;;;4974908;28;20085;-62
2021/01/07 01:32:32;;;;;;;7.18;3.25;;;16.00;56.80;;;;;;4986818;28;20050;-62
2021/01/07 01:34:57;;;;;;;6.68;3.10;;;16.00;56.90;;;;;;4993360;28;20098;-63
2021/01/07 01:37:23;;;;;;;6.78;3.20;;;15.90;56.80;;;;;;4983833;28;20111;-63
2021/01/07 01:39:48;;;;;;;6.00;3.00;;;15.90;56.70;;;;;;4977682;28;20027;-63
2021/01/07 01:42:14;;;;;;;7.47;3.30;;;15.90;56.70;;;;;;4992152;28;20041;-64
2021/01/07 01:44:39;;;;;;;6.55;2.97;;;15.90;56.70;;;;;;4995608;28;20018;-62
2021/01/07 01:47:05;;;;;;;7.05;3.60;;;15.90;56.70;;;;;;4986627;28;20055;-63
2021/01/07 01:49:30;;;;;;;6.70;2.97;;;15.90;56.70;;;;;;4985528;28;20100;-62
2021/01/07 01:51:56;;;;;;;6.00;2.80;;;15.90;56.60;;;;;;4997141;28;20033;-62
2021/01/07 01:54:22;;;;;;;5.70;2.92;;;16.00;56.60;;;;;;4996846;28;20417;-63
2021/01/07 01:56:48;;;;;;;5.60;2.90;;;15.90;56.60;;;;;;4995809;28;20104;-64
2021/01/07 01:59:18;;;;;;;6.80;2.85;;;15.90;56.70;;;;;;4989362;28;20034;-63
2021/01/07 02:01:44;;;;;;;6.70;3.00;;;15.90;56.80;;;;;;4976481;28;20027;-63
2021/01/07 02:04:09;;;;;;;6.55;2.95;;;15.90;56.70;;;;;;4976826;28;20025;-63
2021/01/07 02:06:40;;;;;;;5.72;2.90;;;15.80;56.80;;;;;;4977761;28;20077;-62
2021/01/07 02:09:07;;;;;;;6.88;2.80;;;15.80;57.00;;;;;;4983145;28;20097;-62
2021/01/07 02:11:33;;;;;;;5.40;2.90;;;15.80;57.00;;;;;;4994455;28;20026;-64
2021/01/07 02:14:00;;;;;;;5.82;2.88;;;15.80;57.00;;;;;;4996994;28;20027;-63
2021/01/07 02:16:26;;;;;;;6.03;2.70;;;15.80;56.90;;;;;;4997011;28;20030;-63
2021/01/07 02:18:52;;;;;;;5.30;2.63;;;15.80;57.00;;;;;;4986396;28;20030;-63
2021/01/07 02:21:18;;;;;;;7.80;2.97;;;15.80;56.90;;;;;;4977579;28;20054;-63
2021/01/07 02:23:51;;;;;;;5.43;2.28;;;15.80;57.00;;;;;;4977624;28;20477;-63
2021/01/07 02:26:21;;;;;;;7.22;2.40;;;15.80;57.00;;;;;;4976779;28;20022;-63
2021/01/07 02:28:50;;;;;;;4.95;2.50;;;15.80;57.00;;;;;;4985567;28;20105;-62
2021/01/07 02:31:17;;;;;;;4.88;2.40;;;15.80;57.20;;;;;;4975596;28;20030;-62
2021/01/07 02:33:42;;;;;;;5.63;2.35;;;15.70;57.00;;;;;;4983312;28;20559;-63
2021/01/07 02:36:09;;;;;;;4.95;2.20;;;15.70;56.90;;;;;;4985382;28;20035;-63
2021/01/07 02:38:35;;;;;;;4.88;2.40;;;15.70;57.00;;;;;;4975716;28;20098;-62
2021/01/07 02:41:00;;;;;;;6.00;2.78;;;15.70;57.00;;;;;;4984122;28;20522;-62
2021/01/07 02:43:26;;;;;;;5.80;2.60;;;15.70;57.00;;;;;;4988969;28;20023;-62
2021/01/07 02:46:42;;;;;;;4.13;2.33;;;15.70;57.10;;;;;;4987183;28;20030;-61
2021/01/07 02:49:07;;;;;;;4.70;2.33;;;15.70;57.00;;;;;;4983302;28;20100;-63
2021/01/07 02:51:33;;;;;;;5.25;2.05;;;15.70;57.50;;;;;;4976866;28;20488;-62
2021/01/07 02:54:00;;;;;;;5.97;2.33;;;15.70;57.10;;;;;;4982843;28;20048;-62
2021/01/07 02:56:25;;;;;;;5.03;2.40;;;15.70;57.00;;;;;;4980991;28;20503;-63
2021/01/07 02:58:51;;;;;;;5.60;2.30;;;15.70;56.90;;;;;;4977656;28;20119;-62
2021/01/07 03:04:38;;;;;;;4.65;2.17;;;15.70;56.80;;;;;;4980584;28;20026;-63
2021/01/07 03:07:03;;;;;;;5.05;2.10;;;15.70;56.90;;;;;;4976944;28;20030;-62
2021/01/07 03:09:29;;;;;;;5.65;2.28;;;15.70;56.80;;;;;;4978458;28;20157;-63
2021/01/07 03:11:54;;;;;;;4.18;1.92;;;15.70;56.80;;;;;;4988915;28;20065;-63
2021/01/07 03:14:20;;;;;;;4.55;2.00;;;15.70;56.60;;;;;;4986736;28;20105;-64
2021/01/07 03:16:46;;;;;;;4.82;2.20;;;15.70;56.70;;;;;;4993051;28;20022;-63
2021/01/07 03:19:11;;;;;;;4.55;2.38;;;15.70;56.80;;;;;;4989871;28;20063;-62
2021/01/07 03:21:41;;;;;;;6.05;2.08;;;15.60;56.80;;;;;;4993099;28;20030;-62
2021/01/07 03:24:08;;;;;;;4.45;2.20;;;15.70;56.90;;;;;;4983088;28;20400;-64
2021/01/07 03:26:33;;;;;;;4.10;2.13;;;15.60;56.80;;;;;;4972327;28;20038;-63
2021/01/07 03:28:59;;;;;;;4.03;1.88;;;15.60;56.80;;;;;;4973455;28;20031;-63
2021/01/07 03:31:24;;;;;;;4.95;2.10;;;15.60;56.90;;;;;;4973446;28;20031;-64
2021/01/07 03:33:50;;;;;;;4.65;2.00;;;15.60;57.00;;;;;;4972970;28;20524;-63
2021/01/07 03:36:15;;;;;;;4.57;1.95;;;15.60;57.10;;;;;;4973151;28;20062;-64
2021/01/07 03:38:41;;;;;;;3.88;1.90;;;15.60;57.00;;;;;;4973567;28;20027;-63
2021/01/07 03:41:06;;;;;;;4.03;1.80;;;15.60;57.00;;;;;;4973284;28;20078;-63
2021/01/07 03:43:32;;;;;;;4.03;1.90;;;15.60;57.00;;;;;;4972969;28;20019;-64
2021/01/07 03:45:57;;;;;;;4.40;1.95;;;15.50;56.90;;;;;;4973155;28;20444;-64
2021/01/07 03:48:23;;;;;;;5.03;2.20;;;15.50;57.30;;;;;;4999394;28;20065;-63
2021/01/07 03:50:48;;;;;;;4.20;1.80;;;15.50;57.70;;;;;;4991078;28;20028;-64
2021/01/07 03:53:14;;;;;;;3.28;1.73;;;15.50;57.10;;;;;;4992331;28;20094;-62
2021/01/07 03:55:39;;;;;;;5.03;1.90;;;15.50;57.10;;;;;;4974429;28;20102;-63
2021/01/07 03:58:05;;;;;;;3.42;1.80;;;15.50;57.00;;;;;;4973004;28;20556;-63
2021/01/07 04:00:30;;;;;;;3.50;1.77;;;15.50;57.00;;;;;;4972885;28;20085;-64
2021/01/07 04:02:56;;;;;;;4.10;1.85;;;15.50;57.00;;;;;;4976521;28;20019;-62
2021/01/07 04:05:21;;;;;;;3.03;1.50;;;15.50;56.90;;;;;;4990911;28;20117;-64
2021/01/07 04:07:47;;;;;;;3.00;1.70;;;15.50;56.90;;;;;;4992179;28;20074;-63
2021/01/07 04:10:12;;;;;;;5.70;1.80;;;15.50;57.00;;;;;;4990896;28;20059;-63
2021/01/07 04:12:38;;;;;;;3.50;1.92;;;15.40;56.90;;;;;;4987795;28;20053;-62
2021/01/07 04:15:06;;;;;;;4.65;1.90;;;15.40;56.90;;;;;;4979864;28;20622;-63
2021/01/07 04:17:32;;;;;;;3.47;1.73;;;15.40;57.00;;;;;;4985558;28;20411;-64
2021/01/07 04:23:19;;;;;;;3.88;1.80;;;15.40;56.80;;;;;;4990885;28;20080;-63
2021/01/07 04:32:29;;;;;;;3.03;1.70;;;15.40;56.90;;;;;;4971852;28;20543;-63
2021/01/07 04:34:54;;;;;;;3.05;1.60;;;15.40;56.80;;;;;;4971972;28;20031;-63
2021/01/07 04:37:20;;;;;;;3.45;1.80;;;15.40;56.90;;;;;;4972521;28;20030;-63
2021/01/07 04:39:45;;;;;;;5.38;2.08;;;15.40;56.80;;;;;;4971055;28;20026;-63
2021/01/07 04:45:33;;;;;;;2.72;1.75;;;15.40;56.80;;;;;;4990942;28;20034;-64
2021/01/07 04:48:00;;;;;;;3.72;1.77;;;15.40;56.70;;;;;;4990767;28;20026;-61
2021/01/07 04:50:26;;;;;;;3.28;1.80;;;15.30;56.80;;;;;;4991034;28;20105;-64
2021/01/07 04:52:52;;;;;;;2.92;1.52;;;15.30;56.80;;;;;;4978199;28;20055;-62
2021/01/07 04:55:17;;;;;;;2.80;1.50;;;15.30;56.80;;;;;;4970150;28;20031;-63
2021/01/07 04:57:43;;;;;;;3.03;1.70;;;15.30;56.80;;;;;;4987808;28;20089;-63
2021/01/07 05:00:11;;;;;;;3.70;1.88;;;15.30;56.70;;;;;;4989431;28;20057;-63
2021/01/07 05:02:37;;;;;;;2.60;1.52;;;15.30;56.70;;;;;;4980756;28;20026;-63
2021/01/07 05:05:07;;;;;;;3.25;1.70;;;15.30;56.70;;;;;;4984450;28;20570;-64
2021/01/07 05:07:36;;;;;;;3.50;1.58;;;15.20;56.70;;;;;;4974508;28;20415;-64
2021/01/07 05:10:07;;;;;;;4.43;1.80;;;15.30;56.70;;;;;;4971246;28;20118;-64
2021/01/07 05:12:35;;;;;;;2.78;1.60;;;15.30;56.70;;;;;;4979195;28;20035;-63
2021/01/07 05:15:01;;;;;;;4.05;1.80;;;15.30;56.70;;;;;;4984008;28;20022;-63
2021/01/07 05:17:27;;;;;;;4.55;1.70;;;15.30;56.80;;;;;;4986254;28;20077;-63
2021/01/07 05:19:54;;;;;;;3.85;1.75;;;15.20;56.70;;;;;;4986502;28;20023;-63
2021/01/07 05:22:19;;;;;;;11.05;7.65;;;15.20;57.00;;;;;;4974274;28;20130;-63
2021/01/07 05:24:50;;;;;;;99.90;49.03;;;15.30;57.40;;;;;;4969141;28;20535;-61
2021/01/07 05:27:16;;;;;;;33.95;17.65;;;15.20;58.10;;;;;;4974511;28;20058;-63
2021/01/07 05:29:43;;;;;;;15.93;8.52;;;15.30;57.60;;;;;;4981686;28;20073;-62
2021/01/07 05:32:12;;;;;;;9.38;5.32;;;15.40;57.10;;;;;;4982097;28;20085;-62
2021/01/07 05:34:50;;;;;;;6.93;4.07;;;15.40;57.00;;;;;;4982398;28;20096;-62
2021/01/07 05:37:20;;;;;;;7.32;4.18;;;15.50;57.10;;;;;;4980716;28;20127;-62
2021/01/07 05:39:50;;;;;;;8.38;4.15;;;15.60;57.10;;;;;;4981503;28;20533;-62
2021/01/07 05:42:16;;;;;;;7.25;4.20;;;15.60;57.00;;;;;;4984476;28;20026;-62
2021/01/07 05:44:49;;;;;;;7.25;3.67;;;15.60;57.10;;;;;;4971011;28;20062;-61
2021/01/07 05:47:28;;;;;;;9.25;3.88;;;15.70;57.20;;;;;;4965393;28;20034;-62
2021/01/07 05:49:55;;;;;;;6.88;3.20;;;15.70;57.80;;;;;;4974420;28;20030;-61
2021/01/07 05:55:43;;;;;;;6.90;3.08;;;15.70;57.70;;;;;;4982574;28;20061;-62
2021/01/07 05:58:09;;;;;;;6.18;2.70;;;15.60;57.80;;;;;;4982715;28;20515;-61
2021/01/07 06:00:36;;;;;;;6.90;3.05;;;15.70;57.90;;;;;;4985098;28;20034;-62
2021/01/07 06:03:03;;;;;;;6.32;2.85;;;15.70;57.70;;;;;;4981385;28;20034;-62
2021/01/07 06:05:29;;;;;;;5.82;2.70;;;15.70;57.70;;;;;;4982951;28;20081;-62
2021/01/07 06:07:56;;;;;;;6.97;3.00;;;15.70;57.70;;;;;;4967326;28;20604;-61
2021/01/07 06:10:22;;;;;;;6.57;2.47;;;15.70;58.00;;;;;;4969247;28;20310;-61
2021/01/07 06:12:49;;;;;;;9.52;2.80;;;15.70;58.40;;;;;;4971248;28;20035;-62
2021/01/07 06:15:17;;;;;;;10.35;2.95;;;15.80;58.30;;;;;;4979393;28;20126;-62
2021/01/07 06:17:43;;;;;;;12.75;3.38;;;16.00;58.10;;;;;;4984488;28;20474;-62
2021/01/07 06:20:18;;;;;;;11.40;3.10;;;16.00;58.00;;;;;;4986293;28;20035;-62
2021/01/07 06:22:45;;;;;;;8.13;2.78;;;16.10;58.10;;;;;;4984524;28;20439;-63
2021/01/07 06:25:12;;;;;;;8.93;2.78;;;16.00;57.80;;;;;;4983977;28;20085;-63
2021/01/07 06:27:41;;;;;;;7.22;2.63;;;16.00;58.30;;;;;;4988115;28;20030;-61
2021/01/07 06:30:06;;;;;;;8.70;2.58;;;16.00;58.70;;;;;;4977436;28;20068;-62
2021/01/07 06:32:32;;;;;;;7.35;2.35;;;16.10;59.20;;;;;;4985808;28;20054;-63
2021/01/07 06:34:58;;;;;;;11.40;2.53;;;16.10;58.60;;;;;;4981778;28;20042;-63
2021/01/07 06:37:36;;;;;;;6.53;2.42;;;16.10;58.40;;;;;;4988641;28;20027;-63
2021/01/07 06:40:04;;;;;;;7.82;2.70;;;16.10;58.30;;;;;;5006769;28;20033;-63
2021/01/07 06:42:33;;;;;;;9.70;3.10;;;16.10;58.50;;;;;;4982687;28;20022;-62
2021/01/07 06:44:59;;;;;;;8.57;2.10;;;16.20;58.20;;;;;;4983641;28;20054;-62
2021/01/07 06:47:28;;;;;;;24.90;13.13;;;16.10;58.30;;;;;;4978863;28;20392;-62
2021/01/07 06:49:54;;;;;;;9.40;4.38;;;16.10;58.50;;;;;;4986874;28;20034;-63
2021/01/07 06:52:24;;;;;;;12.93;4.53;;;16.00;58.80;;;;;;4975529;28;20534;-64
2021/01/07 06:54:53;;;;;;;15.20;3.58;;;16.00;58.80;;;;;;4984752;28;20030;-64
2021/01/07 06:57:18;;;;;;;14.27;3.45;;;16.00;58.80;;;;;;4973695;28;20026;-62
2021/01/07 07:00:03;;;;;;;9.85;3.17;;;16.00;59.00;;;;;;4990995;28;20380;-63
2021/01/07 07:02:29;;;;;;;17.65;3.97;;;16.00;58.90;;;;;;4994727;28;20445;-63
2021/01/07 07:05:04;;;;;;;9.43;3.38;;;15.90;58.90;;;;;;4985479;28;20018;-62
2021/01/07 07:08:01;;;;;;;8.35;2.65;;;15.90;58.90;;;;;;4976368;28;20042;-63
2021/01/07 07:10:27;;;;;;;10.05;3.22;;;15.90;58.70;;;;;;4953409;28;20042;-64
2021/01/07 07:12:53;;;;;;;8.02;2.85;;;15.90;58.80;;;;;;4965471;28;20038;-62
2021/01/07 07:15:22;;;;;;;5.70;2.38;;;15.90;59.40;;;;;;4967899;28;20125;-64
2021/01/07 07:17:51;;;;;;;9.02;2.30;;;15.90;58.90;;;;;;4965918;28;20031;-63
2021/01/07 07:20:21;;;;;;;7.30;2.70;;;15.90;58.70;;;;;;4967497;28;20026;-63
2021/01/07 07:22:47;;;;;;;10.82;3.55;;;15.90;58.70;;;;;;4976332;28;20117;-62
2021/01/07 07:25:31;;;;;;;13.32;4.88;;;15.80;58.70;;;;;;4981198;28;20117;-63
2021/01/07 07:28:04;;;;;;;9.93;3.30;;;15.80;59.40;;;;;;4982664;28;20547;-62
2021/01/07 07:30:35;;;;;;;11.45;2.75;;;15.80;59.20;;;;;;4978537;28;20046;-63
2021/01/07 07:33:02;;;;;;;12.63;3.43;;;15.80;59.00;;;;;;4972077;28;20035;-63
2021/01/07 07:35:30;;;;;;;9.00;2.88;;;15.90;59.50;;;;;;4980983;28;20321;-63
2021/01/07 07:37:56;;;;;;;9.65;3.05;;;15.90;58.10;;;;;;4992866;28;20022;-63
2021/01/07 07:40:35;;;;;;;9.02;2.45;;;15.90;57.50;;;;;;4991678;28;20062;-63
2021/01/07 07:43:02;;;;;;;9.05;3.00;;;15.90;57.80;;;;;;4976755;28;20584;-64
2021/01/07 07:45:29;;;;;;;6.97;2.40;;;15.80;57.80;;;;;;4971982;28;20066;-64
2021/01/07 07:47:55;;;;;;;6.68;2.10;;;15.80;57.70;;;;;;4973730;28;20455;-63
2021/01/07 07:50:29;;;;;;;5.88;2.20;;;15.80;57.60;;;;;;4971933;28;20443;-62
2021/01/07 07:53:04;;;;;;;6.05;2.10;;;15.80;57.40;;;;;;4985618;28;20026;-65
2021/01/07 07:55:43;;;;;;;8.13;2.00;;;15.80;57.20;;;;;;4992077;28;20061;-65
2021/01/07 07:58:13;;;;;;;6.47;2.00;;;15.80;57.10;;;;;;4992450;28;20432;-62
2021/01/07 08:00:47;;;;;;;4.95;1.83;;;15.80;57.10;;;;;;4992262;28;20018;-63
2021/01/07 08:03:19;;;;;;;5.63;1.80;;;15.70;57.00;;;;;;4975597;28;20037;-63
2021/01/07 08:12:10;;;;;;;3.30;1.70;;;15.70;56.80;;;;;;4987618;28;20097;-64
2021/01/07 08:14:40;;;;;;;3.50;1.70;;;15.60;56.70;;;;;;4972515;28;20019;-64
2021/01/07 08:17:53;;;;;;;3.72;1.90;;;15.60;56.70;;;;;;4971405;28;20508;-63
2021/01/07 08:20:27;;;;;;;3.88;1.67;;;15.60;56.70;;;;;;4983184;28;20034;-62
2021/01/07 08:22:53;;;;;;;4.15;1.70;;;15.60;56.60;;;;;;4990293;28;20053;-62
2021/01/07 08:25:26;;;;;;;3.78;1.60;;;15.60;56.70;;;;;;4990586;28;20037;-63
2021/01/07 08:27:56;;;;;;;3.60;1.40;;;15.50;56.80;;;;;;4991610;28;20040;-64
2021/01/07 08:30:23;;;;;;;6.20;2.08;;;15.50;56.70;;;;;;4978211;28;20527;-65
2021/01/07 08:32:50;;;;;;;3.67;1.60;;;15.50;56.50;;;;;;4970773;28;20068;-64
2021/01/07 08:35:19;;;;;;;2.78;1.60;;;15.50;56.50;;;;;;4970787;28;20519;-61
2021/01/07 08:37:45;;;;;;;4.35;1.63;;;15.50;56.40;;;;;;4970943;28;20037;-60
2021/01/07 08:40:11;;;;;;;3.65;1.65;;;15.50;56.20;;;;;;4970613;28;20019;-65
2021/01/07 08:42:37;;;;;;;2.85;1.63;;;15.40;56.10;;;;;;4972228;28;20023;-61
2021/01/07 08:45:08;;;;;;;4.22;1.58;;;15.40;55.90;;;;;;4982557;28;20057;-64
2021/01/07 08:47:34;;;;;;;4.53;1.95;;;15.40;56.00;;;;;;4991347;28;20092;-62
2021/01/07 08:50:19;;;;;;;3.38;1.65;;;15.40;55.90;;;;;;4989245;28;20451;-64
2021/01/07 08:52:58;;;;;;;4.32;1.45;;;15.40;55.70;;;;;;4989882;28;20018;-62
2021/01/07 08:55:43;;;;;;;2.97;1.48;;;15.40;55.70;;;;;;4990347;28;20448;-64
2021/01/07 08:58:09;;;;;;;2.67;1.40;;;15.40;55.50;;;;;;4970576;28;20038;-63
2021/01/07 09:00:34;;;;;;;2.53;1.52;;;15.40;55.30;;;;;;4972298;28;20027;-63
2021/01/07 09:03:01;;;;;;;2.97;1.50;;;15.40;55.40;;;;;;4971410;28;20039;-61
2021/01/07 09:05:29;;;;;;;3.78;1.60;;;15.40;55.20;;;;;;4980436;28;20085;-62
2021/01/07 09:08:12;;;;;;;2.85;1.45;;;15.40;55.30;;;;;;4991155;28;20022;-63
2021/01/07 09:10:38;;;;;;;2.47;1.42;;;15.30;55.20;;;;;;4990096;28;20026;-64
2021/01/07 09:13:20;;;;;;;3.28;1.50;;;15.30;55.10;;;;;;4991054;28;20030;-64
2021/01/07 09:15:46;;;;;;;3.67;1.50;;;15.20;55.30;;;;;;4992609;28;20022;-63
2021/01/07 09:18:12;;;;;;;2.83;1.40;;;15.30;55.40;;;;;;4991325;28;20636;-61
2021/01/07 09:20:38;;;;;;;3.97;1.80;;;15.30;55.40;;;;;;4990934;28;20042;-63
2021/01/07 09:23:08;;;;;;;3.42;1.50;;;15.20;55.30;;;;;;4989684;28;20260;-63
2021/01/07 09:25:34;;;;;;;2.50;1.40;;;15.20;55.40;;;;;;4980723;28;20045;-60
2021/01/07 09:28:01;;;;;;;2.63;1.35;;;15.20;55.20;;;;;;4990455;28;20522;-61
2021/01/07 09:30:27;;;;;;;3.05;1.40;;;15.20;55.30;;;;;;4991106;28;20053;-60
2021/01/07 09:32:53;;;;;;;2.30;1.40;;;15.20;55.30;;;;;;4989561;28;20042;-65
2021/01/07 09:35:19;;;;;;;1.60;1.30;;;15.20;55.40;;;;;;4989588;28;20030;-64
2021/01/07 09:37:45;;;;;;;2.67;1.38;;;15.10;55.30;;;;;;4989768;28;20577;-64
2021/01/07 09:40:11;;;;;;;1.95;1.30;;;15.10;55.20;;;;;;4991724;28;20031;-64
2021/01/07 09:42:37;;;;;;;3.88;1.52;;;15.10;55.20;;;;;;4994829;28;20035;-64
2021/01/07 09:45:04;;;;;;;1.85;1.30;;;15.10;55.20;;;;;;4994619;28;20030;-64
2021/01/07 09:47:30;;;;;;;1.90;1.23;;;15.10;55.20;;;;;;4994707;28;20116;-64
2021/01/07 09:49:58;;;;;;;2.42;1.40;;;15.00;55.20;;;;;;4985835;28;20058;-64
2021/01/07 09:52:26;;;;;;;2.72;1.40;;;15.00;55.10;;;;;;4975364;28;20409;-64
2021/01/07 09:54:52;;;;;;;2.75;1.70;;;15.10;55.20;;;;;;4975821;28;20038;-59
2021/01/07 09:57:17;;;;;;;2.20;1.42;;;15.00;55.10;;;;;;4975192;28;20444;-62
2021/01/07 09:59:43;;;;;;;2.33;1.40;;;15.00;55.10;;;;;;4975121;28;20023;-63
2021/01/07 10:02:10;;;;;;;2.55;1.30;;;15.00;55.10;;;;;;4974996;28;20031;-64
2021/01/07 10:04:41;;;;;;;2.30;1.30;;;15.00;55.20;;;;;;4974902;28;20023;-64
2021/01/07 10:07:07;;;;;;;2.15;1.20;;;15.00;55.10;;;;;;4973732;28;20031;-65
2021/01/07 10:09:32;;;;;;;2.65;1.40;;;14.90;55.30;;;;;;4973524;28;20143;-62
2021/01/07 10:11:59;;;;;;;2.60;1.50;;;14.90;55.10;;;;;;4974924;28;20031;-64
2021/01/07 10:14:26;;;;;;;2.47;1.42;;;14.90;55.20;;;;;;4973471;28;20027;-63
2021/01/07 10:16:53;;;;;;;2.28;1.35;;;14.90;55.10;;;;;;4974784;28;20062;-61
2021/01/07 10:19:20;;;;;;;2.85;1.40;;;14.90;55.00;;;;;;4986069;28;20114;-60
2021/01/07 10:22:06;;;;;;;3.15;1.42;;;14.90;55.10;;;;;;4994277;28;20022;-59
2021/01/07 10:24:42;;;;;;;2.58;1.50;;;14.90;55.00;;;;;;4993380;28;20034;-63
2021/01/07 10:27:16;;;;;;;1.90;1.13;;;14.90;55.00;;;;;;4994128;28;20034;-62
2021/01/07 10:29:42;;;;;;;3.70;1.40;;;14.90;54.90;;;;;;4992900;28;20026;-64
2021/01/07 10:32:12;;;;;;;2.50;1.15;;;14.90;55.10;;;;;;4992838;28;20077;-61
2021/01/07 10:34:40;;;;;;;2.50;1.33;;;14.80;55.00;;;;;;4984984;28;20031;-61
2021/01/07 10:37:06;;;;;;;2.22;1.30;;;14.80;55.10;;;;;;4974368;28;20031;-63
2021/01/07 10:39:36;;;;;;;2.58;1.42;;;14.80;55.10;;;;;;4974259;28;20042;-63
2021/01/07 10:42:08;;;;;;;2.28;1.30;;;14.90;55.20;;;;;;4974387;28;20038;-63
2021/01/07 10:44:35;;;;;;;;;;;14.80;55.00;;;;;;4973249;28;20089;-63
2021/01/07 10:47:02;;;;;;;1.63;1.02;;;14.80;55.10;;;;;;4973138;28;19944;-63
2021/01/07 10:49:29;;;;;;;2.65;1.50;;;14.80;55.00;;;;;;4976746;28;20106;-60
2021/01/07 10:52:07;;;;;;;2.17;1.33;;;14.80;55.20;;;;;;4992361;28;20031;-63
2021/01/07 10:54:50;;;;;;;2.75;1.20;;;14.80;55.10;;;;;;4987132;28;20038;-60
2021/01/07 10:57:39;;;;;;;2.67;1.25;;;14.80;55.20;;;;;;4974075;28;20102;-63
2021/01/07 11:00:08;;;;;;;2.50;1.42;;;14.80;55.10;;;;;;4974089;28;20015;-63
2021/01/07 11:03:25;;;;;;;2.08;1.23;;;14.70;55.00;;;;;;4974125;28;20026;-63
2021/01/07 11:06:01;;;;;;;4.35;1.65;;;14.70;55.00;;;;;;4960865;28;20093;-63
2021/01/07 11:08:30;;;;;;;2.75;1.45;;;14.70;55.10;;;;;;4974230;28;20062;-63
2021/01/07 11:10:59;;;;;;;2.20;1.33;;;14.70;54.90;;;;;;4974037;28;20496;-63
2021/01/07 11:13:35;;;;;;;2.60;1.40;;;14.70;55.30;;;;;;4973830;28;20058;-60
2021/01/07 11:16:02;;;;;;;2.28;1.40;;;14.70;54.90;;;;;;4973948;28;20494;-60
2021/01/07 11:18:30;;;;;;;2.72;1.40;;;14.70;54.90;;;;;;4978192;28;20121;-61
2021/01/07 11:21:01;;;;;;;1.92;1.20;;;14.70;54.90;;;;;;4993005;28;20023;-65
2021/01/07 11:23:27;;;;;;;3.25;1.70;;;14.70;54.90;;;;;;4992905;28;20030;-63
2021/01/07 11:25:53;;;;;;;2.65;1.60;;;14.70;54.90;;;;;;4992056;28;20037;-64
2021/01/07 11:28:19;;;;;;;3.03;1.40;;;14.70;54.80;;;;;;4993065;28;20023;-62
2021/01/07 11:30:46;;;;;;;2.08;1.35;;;14.60;54.80;;;;;;4993086;28;20045;-63
2021/01/07 11:33:14;;;;;;;2.60;1.50;;;14.60;55.10;;;;;;4988014;28;20060;-62
2021/01/07 11:35:43;;;;;;;2.03;1.30;;;14.60;55.10;;;;;;4972245;28;20117;-63
2021/01/07 11:38:22;;;;;;;2.63;1.40;;;14.60;54.90;;;;;;4973031;28;20023;-64
2021/01/07 11:41:08;;;;;;;2.25;1.50;;;14.60;55.00;;;;;;4973489;28;20027;-61
2021/01/07 11:43:43;;;;;;;3.20;1.42;;;14.60;55.00;;;;;;4971605;28;20588;-63
2021/01/07 11:46:18;;;;;;;2.60;1.30;;;14.60;54.90;;;;;;4972829;28;20031;-63
2021/01/07 11:48:52;;;;;;;2.25;1.40;;;14.60;54.90;;;;;;4979184;28;20030;-62
2021/01/07 11:51:18;;;;;;;2.55;1.35;;;14.60;55.00;;;;;;4992213;28;20384;-61
2021/01/07 11:53:45;;;;;;;2.50;1.42;;;14.60;55.10;;;;;;4990648;28;20027;-61
2021/01/07 11:56:12;;;;;;;2.63;1.40;;;14.60;55.10;;;;;;4991170;28;20026;-64
2021/01/07 11:58:41;;;;;;;2.00;1.38;;;14.60;55.10;;;;;;4992431;28;20619;-63
2021/01/07 12:01:07;;;;;;;2.70;1.38;;;14.60;55.00;;;;;;4992290;28;20073;-63
2021/01/07 12:03:34;;;;;;;2.88;1.50;;;14.60;54.90;;;;;;4988886;28;20553;-60
2021/01/07 12:06:06;;;;;;;3.35;1.35;;;14.60;54.80;;;;;;4992200;28;20093;-63
2021/01/07 12:09:03;;;;;;;2.08;1.30;;;14.60;55.00;;;;;;4992353;28;20546;-64
2021/01/07 12:12:14;;;;;;;2.13;1.42;;;14.50;54.90;;;;;;4991030;28;20142;-63
2021/01/07 12:14:46;;;;;;;2.45;1.42;;;14.50;55.00;;;;;;4981763;28;20132;-60
2021/01/07 12:17:13;;;;;;;2.65;1.50;;;14.50;54.90;;;;;;4992155;28;20030;-60
2021/01/07 12:19:41;;;;;;;3.28;1.40;;;14.50;54.90;;;;;;4979582;28;20029;-63
2021/01/07 12:22:08;;;;;;;4.35;1.75;;;14.50;54.90;;;;;;4980971;28;20518;-62
2021/01/07 12:24:35;;;;;;;3.05;1.38;;;14.50;54.80;;;;;;4990685;28;20032;-62
2021/01/07 12:27:02;;;;;;;5.55;1.63;;;14.60;54.70;;;;;;4992355;28;20029;-63
2021/01/07 12:29:29;;;;;;;4.65;1.73;;;14.50;55.00;;;;;;4990700;28;20398;-62
2021/01/07 12:32:01;;;;;;;19.13;12.25;;;14.60;54.80;;;;;;4983142;28;20034;-62
2021/01/07 12:34:44;;;;;;;17.52;10.63;;;14.70;54.60;;;;;;4992935;28;20531;-63
2021/01/07 12:37:15;;;;;;;7.60;4.45;;;14.70;54.70;;;;;;4982332;28;20035;-62
2021/01/07 12:39:52;;;;;;;7.38;3.70;;;14.70;54.50;;;;;;4989656;28;20029;-61
2021/01/07 12:42:22;;;;;;;7.55;3.22;;;14.70;54.50;;;;;;4990243;28;20032;-62
2021/01/07 12:44:50;;;;;;;6.07;3.03;;;14.70;54.50;;;;;;4991478;28;20040;-62
2021/01/07 12:47:15;;;;;;;5.97;2.47;;;14.80;54.50;;;;;;4982426;28;20032;-62
2021/01/07 12:49:44;;;;;;;9.05;2.92;;;14.80;54.60;;;;;;4989104;28;20026;-61
2021/01/07 12:52:11;;;;;;;5.53;2.55;;;14.80;55.20;;;;;;4992750;28;20033;-62
2021/01/07 12:54:37;;;;;;;4.85;2.10;;;14.80;54.80;;;;;;4987136;28;20033;-61
2021/01/07 12:57:19;;;;;;;3.70;2.25;;;14.90;54.80;;;;;;4990467;28;20062;-61
2021/01/07 12:59:53;;;;;;;6.25;2.00;;;14.90;54.70;;;;;;4986347;28;20025;-61
2021/01/07 13:02:34;;;;;;;5.68;2.00;;;14.90;54.40;;;;;;4978402;28;20473;-62
2021/01/07 13:05:05;;;;;;;3.83;1.90;;;15.00;54.50;;;;;;4971226;28;20052;-62
2021/01/07 13:07:34;;;;;;;6.55;2.10;;;15.00;54.10;;;;;;5004018;28;20553;-61
2021/01/07 13:10:08;;;;;;;3.95;1.90;;;15.00;54.00;;;;;;4983466;28;20404;-63
2021/01/07 13:12:34;;;;;;;4.32;2.10;;;15.00;54.10;;;;;;4973764;28;20034;-61
2021/01/07 13:15:05;;;;;;;5.10;1.80;;;15.00;54.40;;;;;;4989824;28;20034;-62
2021/01/07 13:17:31;;;;;;;3.83;2.00;;;15.00;54.40;;;;;;4987562;28;20049;-62
2021/01/07 13:19:58;;;;;;;3.97;1.90;;;15.10;54.30;;;;;;4984338;28;20365;-61
2021/01/07 13:22:24;;;;;;;3.25;1.80;;;15.10;54.30;;;;;;4984812;28;20027;-61
2021/01/07 13:24:50;;;;;;;3.90;1.80;;;15.10;54.20;;;;;;4981535;28;20037;-60
2021/01/07 13:27:18;;;;;;;3.58;1.80;;;15.10;54.10;;;;;;4974851;28;20083;-60
2021/01/07 13:29:45;;;;;;;4.22;2.10;;;15.10;54.00;;;;;;5002303;28;20030;-61
2021/01/07 13:32:11;;;;;;;4.43;1.77;;;15.10;54.10;;;;;;4975477;28;20042;-60
2021/01/07 13:34:41;;;;;;;3.80;1.60;;;15.20;54.20;;;;;;4987263;28;20052;-62
2021/01/07 13:37:18;;;;;;;5.00;2.40;;;15.20;54.10;;;;;;4996486;28;20099;-62